createdAt,value
2018-09-18T04:00:36.354Z,0.00
2018-09-18T04:01:36.332Z,0.00
2018-09-18T04:02:36.345Z,0.00
2018-09-18T04:03:36.307Z,0.00
2018-09-18T04:04:36.309Z,0.00
2018-09-18T04:05:36.290Z,0.00
2018-09-18T04:06:36.289Z,0.00
2018-09-18T04:07:36.285Z,0.00
2018-09-18T04:08:36.254Z,0.00
2018-09-18T04:09:36.258Z,0.00
2018-09-18T04:10:36.237Z,0.00
2018-09-18T04:11:36.216Z,0.00
2018-09-18T04:12:36.208Z,0.00
2018-09-18T04:13:36.196Z,0.00
2018-09-18T04:14:36.197Z,0.00
2018-09-18T04:15:36.170Z,0.00
2018-09-18T04:16:36.157Z,0.00
2018-09-18T04:17:36.146Z,0.00
2018-09-18T04:18:36.134Z,0.00
2018-09-18T04:19:36.133Z,0.00
2018-09-18T04:20:36.114Z,0.00
2018-09-18T04:21:36.098Z,0.00
2018-09-18T04:22:36.093Z,0.00
2018-09-18T04:23:36.105Z,0.00
2018-09-18T04:24:36.085Z,0.00
2018-09-18T04:25:36.058Z,0.00
2018-09-18T04:26:36.043Z,0.00
2018-09-18T04:27:36.036Z,0.00
2018-09-18T04:28:36.023Z,0.00
2018-09-18T04:29:36.022Z,0.00
2018-09-18T04:30:36.003Z,0.00
2018-09-18T04:31:35.988Z,0.00
2018-09-18T04:32:35.980Z,0.00
2018-09-18T04:33:35.961Z,0.00
2018-09-18T04:34:35.960Z,0.00
2018-09-18T04:35:35.943Z,0.00
2018-09-18T04:36:35.929Z,0.00
2018-09-18T04:37:35.918Z,0.00
2018-09-18T04:38:35.917Z,0.00
2018-09-18T04:39:35.910Z,0.00
2018-09-18T04:40:35.886Z,0.00
2018-09-18T04:41:35.871Z,0.00
2018-09-18T04:42:35.866Z,0.00
2018-09-18T04:43:35.855Z,0.00
2018-09-18T04:44:35.849Z,0.00
2018-09-18T04:45:35.840Z,0.00
2018-09-18T04:46:35.813Z,0.00
2018-09-18T04:47:35.804Z,0.00
2018-09-18T04:48:35.790Z,0.00
2018-09-18T04:49:35.792Z,0.00
2018-09-18T04:50:35.768Z,0.00
2018-09-18T04:51:35.761Z,0.00
2018-09-18T04:52:35.767Z,0.00
2018-09-18T04:53:35.741Z,0.00
2018-09-18T04:54:35.738Z,0.00
2018-09-18T04:55:35.756Z,0.00
2018-09-18T04:56:35.706Z,0.00
2018-09-18T04:57:35.690Z,0.00
2018-09-18T04:58:35.681Z,0.00
2018-09-18T04:59:35.688Z,0.00
2018-09-18T05:00:35.666Z,0.00
2018-09-18T05:01:35.653Z,0.00
2018-09-18T05:02:35.645Z,0.00
2018-09-18T05:03:35.634Z,5.62
2018-09-18T05:04:35.644Z,5.62
2018-09-18T05:05:35.600Z,5.62
2018-09-18T05:06:35.587Z,5.62
2018-09-18T05:07:35.600Z,5.62
2018-09-18T05:08:35.571Z,5.62
2018-09-18T05:09:35.565Z,5.62
2018-09-18T05:10:35.556Z,5.62
2018-09-18T05:11:35.543Z,5.62
2018-09-18T05:12:35.553Z,5.62
2018-09-18T05:13:35.506Z,5.62
2018-09-18T05:14:35.493Z,5.62
2018-09-18T05:15:35.495Z,5.62
2018-09-18T05:16:35.479Z,5.62
2018-09-18T05:17:35.465Z,11.25
2018-09-18T05:18:35.458Z,11.25
2018-09-18T05:19:35.453Z,11.25
2018-09-18T05:20:35.448Z,11.25
2018-09-18T05:21:35.416Z,11.25
2018-09-18T05:22:35.410Z,11.25
2018-09-18T05:23:35.387Z,11.25
2018-09-18T05:24:35.379Z,11.25
2018-09-18T05:25:35.460Z,16.88
2018-09-18T05:26:35.361Z,16.88
2018-09-18T05:27:35.362Z,16.88
2018-09-18T05:28:35.328Z,16.88
2018-09-18T05:29:35.318Z,16.88
2018-09-18T05:30:35.318Z,16.88
2018-09-18T05:31:35.297Z,16.88
2018-09-18T05:32:35.283Z,16.88
2018-09-18T05:33:35.325Z,22.50
2018-09-18T05:34:35.265Z,22.50
2018-09-18T05:35:35.259Z,22.50
2018-09-18T05:36:35.243Z,22.50
2018-09-18T05:37:35.222Z,22.50
2018-09-18T05:38:35.224Z,22.50
2018-09-18T05:39:35.221Z,22.50
2018-09-18T05:40:35.199Z,28.12
2018-09-18T05:41:35.178Z,28.12
2018-09-18T05:42:35.166Z,28.12
2018-09-18T05:43:35.155Z,28.12
2018-09-18T05:44:35.140Z,28.12
2018-09-18T05:45:35.139Z,28.12
2018-09-18T05:46:35.121Z,28.12
2018-09-18T05:47:35.108Z,28.12
2018-09-18T05:48:35.100Z,28.12
2018-09-18T05:49:35.085Z,33.75
2018-09-18T05:50:35.083Z,33.75
2018-09-18T05:51:35.063Z,33.75
2018-09-18T05:52:35.051Z,33.75
2018-09-18T05:53:35.046Z,33.75
2018-09-18T05:54:35.038Z,33.75
2018-09-18T05:55:35.025Z,33.75
2018-09-18T05:56:35.007Z,33.75
2018-09-18T05:57:34.993Z,33.75
2018-09-18T05:58:34.979Z,39.38
2018-09-18T05:59:34.972Z,39.38
2018-09-18T06:00:34.963Z,39.38
2018-09-18T06:01:34.945Z,39.38
2018-09-18T06:02:34.936Z,39.38
2018-09-18T06:03:34.924Z,39.38
2018-09-18T06:04:34.911Z,39.38
2018-09-18T06:05:34.907Z,39.38
2018-09-18T06:06:34.888Z,39.38
2018-09-18T06:07:34.886Z,39.38
2018-09-18T06:08:34.863Z,45.00
2018-09-18T06:09:34.852Z,45.00
2018-09-18T06:10:34.882Z,45.00
2018-09-18T06:11:34.829Z,45.00
2018-09-18T06:12:34.876Z,45.00
2018-09-18T06:13:34.805Z,45.00
2018-09-18T06:14:34.794Z,45.00
2018-09-18T06:15:34.795Z,45.00
2018-09-18T06:16:34.775Z,45.00
2018-09-18T06:17:34.765Z,45.00
2018-09-18T06:18:34.798Z,45.00
2018-09-18T06:19:34.750Z,45.00
2018-09-18T06:20:34.736Z,50.62
2018-09-18T06:21:34.718Z,50.62
2018-09-18T06:22:34.700Z,50.62
2018-09-18T06:23:34.687Z,50.62
2018-09-18T06:24:34.678Z,50.62
2018-09-18T06:25:34.710Z,50.62
2018-09-18T06:26:34.693Z,50.62
2018-09-18T06:27:34.662Z,50.62
2018-09-18T06:28:34.631Z,50.62
2018-09-18T06:29:34.624Z,50.62
2018-09-18T06:30:34.618Z,50.62
2018-09-18T06:31:34.625Z,56.25
2018-09-18T06:32:34.588Z,56.25
2018-09-18T06:33:34.576Z,56.25
2018-09-18T06:34:34.570Z,56.25
2018-09-18T06:35:34.563Z,56.25
2018-09-18T06:36:34.540Z,56.25
2018-09-18T06:37:34.524Z,56.25
2018-09-18T06:38:34.513Z,56.25
2018-09-18T06:39:34.513Z,56.25
2018-09-18T06:40:34.504Z,56.25
2018-09-18T06:41:34.476Z,56.25
2018-09-18T06:42:34.467Z,61.88
2018-09-18T06:43:34.465Z,61.88
2018-09-18T06:44:34.447Z,61.88
2018-09-18T06:45:34.444Z,61.88
2018-09-18T06:46:34.420Z,61.88
2018-09-18T06:47:34.407Z,61.88
2018-09-18T06:48:34.396Z,61.88
2018-09-18T06:49:34.409Z,61.88
2018-09-18T06:50:34.385Z,73.12
2018-09-18T06:51:34.377Z,95.62
2018-09-18T06:52:34.352Z,157.50
2018-09-18T06:53:34.341Z,196.88
2018-09-18T06:54:34.422Z,196.88
2018-09-18T06:55:34.329Z,196.88
2018-09-18T06:56:34.307Z,202.50
2018-09-18T06:57:34.313Z,202.50
2018-09-18T06:58:34.283Z,202.50
2018-09-18T06:59:34.271Z,202.50
2018-09-18T07:00:34.276Z,202.50
2018-09-18T07:01:34.246Z,202.50
2018-09-18T07:02:34.237Z,208.12
2018-09-18T07:03:34.228Z,208.12
2018-09-18T07:04:34.210Z,213.75
2018-09-18T07:05:34.268Z,219.38
2018-09-18T07:06:34.192Z,219.38
2018-09-18T07:07:34.175Z,225.00
2018-09-18T07:08:34.165Z,225.00
2018-09-18T07:09:34.153Z,225.00
2018-09-18T07:10:34.231Z,230.62
2018-09-18T07:11:34.132Z,230.62
2018-09-18T07:12:34.117Z,230.62
2018-09-18T07:13:34.108Z,230.62
2018-09-18T07:14:34.095Z,230.62
2018-09-18T07:15:34.135Z,236.25
2018-09-18T07:16:34.082Z,236.25
2018-09-18T07:17:34.073Z,241.88
2018-09-18T07:18:34.051Z,241.88
2018-09-18T07:19:34.041Z,241.88
2018-09-18T07:20:34.029Z,236.25
2018-09-18T07:21:34.033Z,241.88
2018-09-18T07:22:34.005Z,241.88
2018-09-18T07:23:33.991Z,236.25
2018-09-18T07:24:33.982Z,253.12
2018-09-18T07:25:33.975Z,253.12
2018-09-18T07:26:33.985Z,253.12
2018-09-18T07:27:33.951Z,258.75
2018-09-18T07:28:33.939Z,258.75
2018-09-18T07:29:33.925Z,258.75
2018-09-18T07:30:33.914Z,258.75
2018-09-18T07:31:33.912Z,258.75
2018-09-18T07:32:33.893Z,264.38
2018-09-18T07:33:33.879Z,264.38
2018-09-18T07:34:33.869Z,270.00
2018-09-18T07:35:33.856Z,270.00
2018-09-18T07:36:33.873Z,275.62
2018-09-18T07:37:33.835Z,281.25
2018-09-18T07:38:33.823Z,281.25
2018-09-18T07:39:34.735Z,286.88
2018-09-18T07:40:33.800Z,286.88
2018-09-18T07:41:33.801Z,292.50
2018-09-18T07:42:33.793Z,298.12
2018-09-18T07:43:33.770Z,298.12
2018-09-18T07:44:33.760Z,303.75
2018-09-18T07:45:33.744Z,309.38
2018-09-18T07:46:33.746Z,309.38
2018-09-18T07:47:33.725Z,309.38
2018-09-18T07:48:33.713Z,315.00
2018-09-18T07:49:33.703Z,320.62
2018-09-18T07:50:33.688Z,320.62
2018-09-18T07:51:33.687Z,320.62
2018-09-18T07:52:33.675Z,326.25
2018-09-18T07:53:33.659Z,326.25
2018-09-18T07:54:33.643Z,331.88
2018-09-18T07:55:33.632Z,331.88
2018-09-18T07:56:33.635Z,331.88
2018-09-18T07:57:33.611Z,343.12
2018-09-18T07:58:33.602Z,331.88
2018-09-18T07:59:33.595Z,343.12
2018-09-18T08:00:33.583Z,337.50
2018-09-18T08:01:33.579Z,343.12
2018-09-18T08:02:33.561Z,343.12
2018-09-18T08:03:33.547Z,348.75
2018-09-18T08:04:33.531Z,348.75
2018-09-18T08:05:33.526Z,354.38
2018-09-18T08:06:33.520Z,354.38
2018-09-18T08:07:33.506Z,354.38
2018-09-18T08:08:33.494Z,354.38
2018-09-18T08:09:33.476Z,360.00
2018-09-18T08:10:33.467Z,371.25
2018-09-18T08:11:33.464Z,461.25
2018-09-18T08:12:33.443Z,601.88
2018-09-18T08:13:33.433Z,646.88
2018-09-18T08:14:33.418Z,579.38
2018-09-18T08:15:33.406Z,579.38
2018-09-18T08:16:33.406Z,635.62
2018-09-18T08:17:33.392Z,736.88
2018-09-18T08:18:33.384Z,916.88
2018-09-18T08:19:33.543Z,1288.12
2018-09-18T08:20:33.349Z,1659.38
2018-09-18T08:21:33.353Z,1816.88
2018-09-18T08:22:33.333Z,1935.00
2018-09-18T08:23:33.336Z,1929.38
2018-09-18T08:24:33.308Z,1839.38
2018-09-18T08:25:33.413Z,1743.75
2018-09-18T08:26:33.294Z,1738.12
2018-09-18T08:27:33.277Z,1755.00
2018-09-18T08:28:33.265Z,1783.12
2018-09-18T08:29:33.269Z,1766.25
2018-09-18T08:30:33.245Z,1771.88
2018-09-18T08:31:33.241Z,1828.12
2018-09-18T08:32:33.279Z,1856.25
2018-09-18T08:33:33.205Z,1833.75
2018-09-18T08:34:33.197Z,1850.62
2018-09-18T08:35:33.185Z,1867.50
2018-09-18T08:36:33.184Z,1856.25
2018-09-18T08:37:33.194Z,1811.25
2018-09-18T08:38:33.148Z,1507.50
2018-09-18T08:39:33.142Z,843.75
2018-09-18T08:40:33.156Z,534.38
2018-09-18T08:41:33.139Z,489.38
2018-09-18T08:42:33.121Z,585.00
2018-09-18T08:43:33.119Z,826.88
2018-09-18T08:44:33.081Z,995.62
2018-09-18T08:45:33.095Z,1018.12
2018-09-18T08:46:33.068Z,978.75
2018-09-18T08:47:33.047Z,1001.25
2018-09-18T08:48:33.054Z,1063.12
2018-09-18T08:49:33.045Z,1102.50
2018-09-18T08:50:33.032Z,1029.38
2018-09-18T08:51:33.016Z,1085.62
2018-09-18T08:52:33.016Z,1085.62
2018-09-18T08:53:33.010Z,911.25
2018-09-18T08:54:32.998Z,601.88
2018-09-18T08:55:32.962Z,472.50
2018-09-18T08:56:32.981Z,843.75
2018-09-18T08:57:32.935Z,1456.88
2018-09-18T08:58:32.923Z,1665.00
2018-09-18T08:59:32.909Z,1366.88
2018-09-18T09:00:32.899Z,658.12
2018-09-18T09:01:32.918Z,466.88
2018-09-18T09:02:32.910Z,427.50
2018-09-18T09:03:32.872Z,410.62
2018-09-18T09:04:32.857Z,399.38
2018-09-18T09:05:32.865Z,393.75
2018-09-18T09:06:32.926Z,388.12
2018-09-18T09:07:32.928Z,393.75
2018-09-18T09:08:32.826Z,405.00
2018-09-18T09:09:32.804Z,495.00
2018-09-18T09:10:32.833Z,500.62
2018-09-18T09:11:32.805Z,410.62
2018-09-18T09:12:32.765Z,376.88
2018-09-18T09:13:32.760Z,360.00
2018-09-18T09:14:32.831Z,354.38
2018-09-18T09:15:32.755Z,354.38
2018-09-18T09:16:32.716Z,348.75
2018-09-18T09:17:32.737Z,348.75
2018-09-18T09:18:32.796Z,343.12
2018-09-18T09:19:32.684Z,343.12
2018-09-18T09:20:32.673Z,331.88
2018-09-18T09:21:32.686Z,331.88
2018-09-18T09:22:32.777Z,326.25
2018-09-18T09:23:32.644Z,320.62
2018-09-18T09:24:32.660Z,315.00
2018-09-18T09:25:32.620Z,309.38
2018-09-18T09:26:32.654Z,303.75
2018-09-18T09:27:32.671Z,303.75
2018-09-18T09:28:32.589Z,286.88
2018-09-18T09:29:32.655Z,292.50
2018-09-18T09:30:32.559Z,281.25
2018-09-18T09:31:32.554Z,275.62
2018-09-18T09:32:32.592Z,275.62
2018-09-18T09:33:32.556Z,264.38
2018-09-18T09:34:32.515Z,258.75
2018-09-18T09:35:32.503Z,236.25
2018-09-18T09:36:32.509Z,213.75
2018-09-18T09:37:32.521Z,191.25
2018-09-18T09:38:32.487Z,180.00
2018-09-18T09:39:32.460Z,163.12
2018-09-18T09:40:32.461Z,151.88
2018-09-18T09:41:32.445Z,146.25
2018-09-18T09:42:32.446Z,140.62
2018-09-18T09:43:32.415Z,135.00
2018-09-18T09:44:32.407Z,129.38
2018-09-18T09:45:32.397Z,135.00
2018-09-18T09:46:32.382Z,135.00
2018-09-18T09:47:32.392Z,129.38
2018-09-18T09:48:32.359Z,129.38
2018-09-18T09:49:32.349Z,123.75
2018-09-18T09:50:32.337Z,123.75
2018-09-18T09:51:32.384Z,123.75
2018-09-18T09:52:32.332Z,123.75
2018-09-18T09:53:32.302Z,123.75
2018-09-18T09:54:32.289Z,118.12
2018-09-18T09:55:32.277Z,118.12
2018-09-18T09:56:32.282Z,112.50
2018-09-18T09:57:32.275Z,112.50
2018-09-18T09:58:32.248Z,112.50
2018-09-18T09:59:32.240Z,112.50
2018-09-18T10:00:32.233Z,112.50
2018-09-18T10:01:32.214Z,112.50
2018-09-18T10:02:32.240Z,112.50
2018-09-18T10:03:32.192Z,118.12
2018-09-18T10:04:32.181Z,118.12
2018-09-18T10:05:32.166Z,118.12
2018-09-18T10:06:32.162Z,118.12
2018-09-18T10:07:32.168Z,118.12
2018-09-18T10:08:32.142Z,118.12
2018-09-18T10:09:32.129Z,118.12
2018-09-18T10:10:32.188Z,118.12
2018-09-18T10:11:32.125Z,118.12
2018-09-18T10:12:32.108Z,118.12
2018-09-18T10:13:32.103Z,118.12
2018-09-18T10:14:32.069Z,118.12
2018-09-18T10:15:32.058Z,118.12
2018-09-18T10:16:32.074Z,112.50
2018-09-18T10:17:32.100Z,112.50
2018-09-18T10:18:32.025Z,112.50
2018-09-18T10:19:32.009Z,112.50
2018-09-18T10:20:31.998Z,112.50
2018-09-18T10:21:32.128Z,112.50
2018-09-18T10:22:31.984Z,112.50
2018-09-18T10:23:31.963Z,112.50
2018-09-18T10:24:31.987Z,112.50
2018-09-18T10:25:31.957Z,112.50
2018-09-18T10:26:32.019Z,112.50
2018-09-18T10:27:31.931Z,112.50
2018-09-18T10:28:31.917Z,112.50
2018-09-18T10:29:31.902Z,112.50
2018-09-18T10:30:31.909Z,112.50
2018-09-18T10:31:31.940Z,106.88
2018-09-18T10:32:31.883Z,112.50
2018-09-18T10:33:31.869Z,112.50
2018-09-18T10:34:31.838Z,112.50
2018-09-18T10:35:31.859Z,112.50
2018-09-18T10:36:31.843Z,112.50
2018-09-18T10:37:31.842Z,112.50
2018-09-18T10:38:31.820Z,112.50
2018-09-18T10:39:31.783Z,112.50
2018-09-18T10:40:31.774Z,118.12
2018-09-18T10:41:31.925Z,112.50
2018-09-18T10:42:31.781Z,112.50
2018-09-18T10:43:31.755Z,112.50
2018-09-18T10:44:31.733Z,106.88
2018-09-18T10:45:31.720Z,112.50
2018-09-18T10:46:31.705Z,106.88
2018-09-18T10:47:31.734Z,106.88
2018-09-18T10:48:31.683Z,106.88
2018-09-18T10:49:31.683Z,112.50
2018-09-18T10:50:31.664Z,112.50
2018-09-18T10:51:31.650Z,112.50
2018-09-18T10:52:31.661Z,106.88
2018-09-18T10:53:31.626Z,112.50
2018-09-18T10:54:31.618Z,129.38
2018-09-18T10:55:31.697Z,118.12
2018-09-18T10:56:31.606Z,112.50
2018-09-18T10:57:31.593Z,106.88
2018-09-18T10:58:31.572Z,106.88
2018-09-18T10:59:31.561Z,106.88
2018-09-18T11:00:31.551Z,106.88
2018-09-18T11:01:31.544Z,106.88
2018-09-18T11:02:31.535Z,101.25
2018-09-18T11:03:31.518Z,101.25
2018-09-18T11:04:31.515Z,101.25
2018-09-18T11:05:31.493Z,101.25
2018-09-18T11:06:31.488Z,95.62
2018-09-18T11:07:31.507Z,101.25
2018-09-18T11:08:31.465Z,101.25
2018-09-18T11:09:31.449Z,101.25
2018-09-18T11:10:31.498Z,106.88
2018-09-18T11:11:31.500Z,106.88
2018-09-18T11:12:31.428Z,101.25
2018-09-18T11:13:31.450Z,101.25
2018-09-18T11:14:31.399Z,95.62
2018-09-18T11:15:31.490Z,101.25
2018-09-18T11:16:31.386Z,101.25
2018-09-18T11:17:31.394Z,101.25
2018-09-18T11:18:31.375Z,101.25
2018-09-18T11:19:31.339Z,95.62
2018-09-18T11:20:31.402Z,101.25
2018-09-18T11:21:31.404Z,101.25
2018-09-18T11:59:06.632Z,90.00
2018-09-18T12:00:06.653Z,90.00
2018-09-18T12:01:06.593Z,90.00
2018-09-18T12:02:06.583Z,84.38
2018-09-18T12:03:06.631Z,84.38
2018-09-18T12:04:06.558Z,84.38
2018-09-18T12:05:06.636Z,84.38
2018-09-18T12:06:06.537Z,84.38
2018-09-18T12:07:06.525Z,84.38
2018-09-18T12:08:06.524Z,84.38
2018-09-18T12:09:06.534Z,84.38
2018-09-18T12:10:06.500Z,84.38
2018-09-18T12:11:06.490Z,84.38
2018-09-18T12:12:06.472Z,84.38
2018-09-18T12:13:06.472Z,84.38
2018-09-18T12:14:06.449Z,84.38
2018-09-18T12:15:06.438Z,84.38
2018-09-18T12:16:06.426Z,84.38
2018-09-18T12:17:06.540Z,84.38
2018-09-18T12:18:06.412Z,78.75
2018-09-18T12:19:06.390Z,84.38
2018-09-18T12:20:06.382Z,84.38
2018-09-18T12:21:06.379Z,84.38
2018-09-18T12:22:06.401Z,84.38
2018-09-18T12:23:06.358Z,78.75
2018-09-18T12:24:06.334Z,78.75
2018-09-18T12:25:06.323Z,78.75
2018-09-18T12:26:06.318Z,78.75
2018-09-18T12:27:06.302Z,78.75
2018-09-18T12:28:06.314Z,78.75
2018-09-18T12:29:06.278Z,78.75
2018-09-18T12:30:06.267Z,78.75
2018-09-18T12:31:06.256Z,78.75
2018-09-18T12:32:06.246Z,78.75
2018-09-18T12:33:06.267Z,78.75
2018-09-18T12:34:06.240Z,78.75
2018-09-18T12:35:06.255Z,78.75
2018-09-18T12:36:06.203Z,73.12
2018-09-18T12:37:06.189Z,78.75
2018-09-18T12:38:06.179Z,78.75
2018-09-18T12:39:06.175Z,78.75
2018-09-18T12:40:06.184Z,73.12
2018-09-18T12:41:06.146Z,78.75
2018-09-18T12:42:06.279Z,73.12
2018-09-18T12:43:06.123Z,73.12
2018-09-18T12:44:06.121Z,73.12
2018-09-18T12:45:06.102Z,73.12
2018-09-18T12:46:06.092Z,73.12
2018-09-18T12:47:06.080Z,73.12
2018-09-18T12:48:06.165Z,73.12
2018-09-18T12:49:06.142Z,73.12
2018-09-18T12:50:06.181Z,73.12
2018-09-18T12:51:06.048Z,73.12
2018-09-18T12:52:06.029Z,73.12
2018-09-18T12:53:06.010Z,67.50
2018-09-18T12:54:06.048Z,73.12
2018-09-18T12:55:05.992Z,67.50
2018-09-18T12:56:06.071Z,73.12
2018-09-18T12:57:06.165Z,67.50
2018-09-18T12:58:05.963Z,67.50
2018-09-18T12:59:05.964Z,67.50
2018-09-18T13:00:05.941Z,67.50
2018-09-18T13:01:06.007Z,67.50
2018-09-18T13:02:05.917Z,67.50
2018-09-18T13:03:05.902Z,67.50
2018-09-18T13:04:05.900Z,67.50
2018-09-18T13:05:05.877Z,67.50
2018-09-18T13:06:05.944Z,61.88
2018-09-18T13:07:05.964Z,67.50
2018-09-18T13:08:05.939Z,61.88
2018-09-18T13:09:05.841Z,61.88
2018-09-18T13:10:05.892Z,61.88
2018-09-18T13:11:05.810Z,61.88
2018-09-18T13:12:05.840Z,61.88
2018-09-18T13:13:05.824Z,61.88
2018-09-18T13:14:05.977Z,61.88
2018-09-18T13:15:05.766Z,61.88
2018-09-18T13:16:05.753Z,61.88
2018-09-18T13:17:05.769Z,61.88
2018-09-18T13:18:05.733Z,61.88
2018-09-18T13:19:05.728Z,61.88
2018-09-18T13:20:05.860Z,61.88
2018-09-18T13:21:05.702Z,61.88
2018-09-18T13:22:05.711Z,61.88
2018-09-18T13:23:05.676Z,61.88
2018-09-18T13:24:05.673Z,61.88
2018-09-18T13:25:05.653Z,61.88
2018-09-18T13:26:05.646Z,56.25
2018-09-18T13:27:05.634Z,61.88
2018-09-18T13:28:05.619Z,61.88
2018-09-18T13:29:05.631Z,61.88
2018-09-18T13:30:05.599Z,56.25
2018-09-18T13:31:05.585Z,56.25
2018-09-18T13:32:05.587Z,56.25
2018-09-18T13:33:05.567Z,61.88
2018-09-18T13:34:05.562Z,56.25
2018-09-18T13:35:05.589Z,56.25
2018-09-18T13:36:05.568Z,56.25
2018-09-18T13:37:05.519Z,56.25
2018-09-18T13:38:05.506Z,56.25
2018-09-18T13:39:05.538Z,56.25
2018-09-18T13:40:05.488Z,56.25
2018-09-18T13:41:05.494Z,56.25
2018-09-18T13:42:05.463Z,56.25
2018-09-18T13:43:05.454Z,56.25
2018-09-18T13:44:05.449Z,56.25
2018-09-18T13:45:05.432Z,56.25
2018-09-18T13:46:05.416Z,56.25
2018-09-18T13:47:05.405Z,56.25
2018-09-18T13:48:05.395Z,56.25
2018-09-18T13:49:05.440Z,56.25
2018-09-18T13:50:05.426Z,56.25
2018-09-18T13:51:05.383Z,56.25
2018-09-18T13:52:05.352Z,56.25
2018-09-18T13:53:05.339Z,56.25
2018-09-18T13:54:05.339Z,56.25
2018-09-18T13:55:05.317Z,56.25
2018-09-18T13:56:05.319Z,56.25
2018-09-18T13:57:05.297Z,56.25
2018-09-18T13:58:05.283Z,56.25
2018-09-18T13:59:05.305Z,56.25
2018-09-18T14:00:05.270Z,56.25
2018-09-18T14:01:05.324Z,56.25
2018-09-18T14:02:05.256Z,50.62
2018-09-18T14:03:05.229Z,56.25
2018-09-18T14:04:05.227Z,56.25
2018-09-18T14:05:05.214Z,56.25
2018-09-18T14:06:05.195Z,50.62
2018-09-18T14:07:05.188Z,50.62
2018-09-18T14:08:05.192Z,50.62
2018-09-18T14:09:05.412Z,50.62
2018-09-18T14:10:05.148Z,50.62
2018-09-18T14:11:05.178Z,50.62
2018-09-18T14:12:05.131Z,56.25
2018-09-18T14:13:05.127Z,50.62
2018-09-18T14:14:05.124Z,50.62
2018-09-18T14:15:05.241Z,50.62
2018-09-18T14:16:05.084Z,50.62
2018-09-18T14:17:05.076Z,50.62
2018-09-18T14:18:05.060Z,50.62
2018-09-18T14:19:05.060Z,50.62
2018-09-18T14:20:05.070Z,50.62
2018-09-18T14:21:05.049Z,50.62
2018-09-18T14:22:05.017Z,50.62
2018-09-18T14:23:05.004Z,50.62
2018-09-18T14:24:05.008Z,50.62
2018-09-18T14:25:04.979Z,50.62
2018-09-18T14:26:05.024Z,50.62
2018-09-18T14:27:04.961Z,50.62
2018-09-18T14:28:04.957Z,50.62
2018-09-18T14:29:04.949Z,50.62
2018-09-18T14:30:04.923Z,50.62
2018-09-18T14:31:04.916Z,50.62
2018-09-18T14:32:04.906Z,50.62
2018-09-18T14:33:04.897Z,50.62
2018-09-18T14:34:04.900Z,50.62
2018-09-18T14:35:04.869Z,50.62
2018-09-18T14:36:04.923Z,50.62
2018-09-18T14:37:04.847Z,50.62
2018-09-18T14:38:04.840Z,50.62
2018-09-18T14:39:04.851Z,50.62
2018-09-18T14:40:04.818Z,50.62
2018-09-18T14:41:04.809Z,45.00
2018-09-18T14:42:04.826Z,45.00
2018-09-18T14:43:04.789Z,45.00
2018-09-18T14:44:04.779Z,45.00
2018-09-18T14:45:04.777Z,45.00
2018-09-18T14:46:04.781Z,45.00
2018-09-18T14:47:04.868Z,45.00
2018-09-18T14:48:04.937Z,45.00
2018-09-18T14:49:04.713Z,45.00
2018-09-18T14:50:04.713Z,45.00
2018-09-18T14:51:04.705Z,45.00
2018-09-18T14:52:04.680Z,45.00
2018-09-18T14:53:04.671Z,45.00
2018-09-18T14:54:04.695Z,45.00
2018-09-18T14:55:04.658Z,45.00
2018-09-18T14:56:04.634Z,45.00
2018-09-18T14:57:04.623Z,45.00
2018-09-18T14:58:04.630Z,45.00
2018-09-18T14:59:04.599Z,45.00
2018-09-18T15:00:04.620Z,45.00
2018-09-18T15:01:04.577Z,45.00
2018-09-18T15:02:04.566Z,45.00
2018-09-18T15:03:04.559Z,45.00
2018-09-18T15:04:04.545Z,45.00
2018-09-18T15:05:04.552Z,45.00
2018-09-18T15:06:04.523Z,45.00
2018-09-18T15:07:04.529Z,45.00
2018-09-18T15:08:04.500Z,45.00
2018-09-18T15:09:04.487Z,45.00
2018-09-18T15:10:04.496Z,45.00
2018-09-18T15:11:04.467Z,45.00
2018-09-18T15:12:04.462Z,45.00
2018-09-18T15:13:04.446Z,45.00
2018-09-18T15:14:04.432Z,45.00
2018-09-18T15:15:04.432Z,45.00
2018-09-18T15:16:04.414Z,39.38
2018-09-18T15:17:04.398Z,39.38
2018-09-18T15:18:04.388Z,39.38
2018-09-18T15:19:04.378Z,39.38
2018-09-18T15:20:04.378Z,39.38
2018-09-18T15:21:04.355Z,39.38
2018-09-18T15:22:04.430Z,39.38
2018-09-18T15:23:04.336Z,39.38
2018-09-18T15:24:04.321Z,39.38
2018-09-18T15:25:04.319Z,39.38
2018-09-18T15:26:04.301Z,39.38
2018-09-18T15:27:04.288Z,39.38
2018-09-18T15:28:04.344Z,39.38
2018-09-18T15:29:04.269Z,39.38
2018-09-18T15:30:04.264Z,39.38
2018-09-18T15:31:04.265Z,39.38
2018-09-18T15:32:04.323Z,39.38
2018-09-18T15:33:04.223Z,39.38
2018-09-18T15:34:04.273Z,39.38
2018-09-18T15:35:04.208Z,39.38
2018-09-18T15:36:04.187Z,39.38
2018-09-18T15:37:04.177Z,39.38
2018-09-18T15:38:04.166Z,39.38
2018-09-18T15:39:04.153Z,39.38
2018-09-18T15:40:04.202Z,39.38
2018-09-18T15:41:04.147Z,39.38
2018-09-18T15:42:04.128Z,39.38
2018-09-18T15:43:04.167Z,33.75
2018-09-18T15:44:04.107Z,33.75
2018-09-18T15:45:04.100Z,33.75
2018-09-18T15:46:04.142Z,33.75
2018-09-18T15:47:04.070Z,33.75
2018-09-18T15:48:04.055Z,33.75
2018-09-18T15:49:04.041Z,33.75
2018-09-18T15:50:04.041Z,33.75
2018-09-18T15:51:04.023Z,33.75
2018-09-18T15:52:04.134Z,33.75
2018-09-18T15:53:03.997Z,33.75
2018-09-18T15:54:04.028Z,33.75
2018-09-18T15:55:04.015Z,33.75
2018-09-18T15:56:03.961Z,33.75
2018-09-18T15:57:03.952Z,33.75
2018-09-18T15:58:03.942Z,33.75
2018-09-18T15:59:03.930Z,33.75
2018-09-18T16:00:03.933Z,33.75
2018-09-18T16:01:03.919Z,33.75
2018-09-18T16:02:03.899Z,33.75
2018-09-18T16:03:03.886Z,33.75
2018-09-18T16:04:03.877Z,28.12
2018-09-18T16:05:03.875Z,28.12
2018-09-18T16:06:03.881Z,28.12
2018-09-18T16:07:03.843Z,28.12
2018-09-18T16:08:03.834Z,28.12
2018-09-18T16:09:03.820Z,28.12
2018-09-18T16:10:03.876Z,28.12
2018-09-18T16:11:03.804Z,28.12
2018-09-18T16:12:03.788Z,28.12
2018-09-18T16:13:03.772Z,28.12
2018-09-18T16:14:03.767Z,28.12
2018-09-18T16:15:03.830Z,28.12
2018-09-18T16:16:03.754Z,28.12
2018-09-18T16:17:03.739Z,28.12
2018-09-18T16:18:03.719Z,28.12
2018-09-18T16:19:03.725Z,28.12
2018-09-18T16:20:03.705Z,28.12
2018-09-18T16:21:03.683Z,28.12
2018-09-18T16:22:03.672Z,22.50
2018-09-18T16:23:03.704Z,22.50
2018-09-18T16:24:03.653Z,22.50
2018-09-18T16:25:03.748Z,22.50
2018-09-18T16:26:03.646Z,22.50
2018-09-18T16:27:03.621Z,22.50
2018-09-18T16:28:03.653Z,22.50
2018-09-18T16:29:03.598Z,22.50
2018-09-18T16:30:03.668Z,22.50
2018-09-18T16:31:03.577Z,22.50
2018-09-18T16:32:03.561Z,22.50
2018-09-18T16:33:03.551Z,22.50
2018-09-18T16:34:03.664Z,22.50
2018-09-18T16:35:03.584Z,22.50
2018-09-18T16:36:03.522Z,22.50
2018-09-18T16:37:03.504Z,22.50
2018-09-18T16:38:03.495Z,16.88
2018-09-18T16:39:03.483Z,16.88
2018-09-18T16:40:03.501Z,16.88
2018-09-18T16:41:03.492Z,16.88
2018-09-18T16:42:03.455Z,16.88
2018-09-18T16:43:03.437Z,16.88
2018-09-18T16:44:03.506Z,16.88
2018-09-18T16:45:03.484Z,16.88
2018-09-18T16:46:03.466Z,16.88
2018-09-18T16:47:03.394Z,16.88
2018-09-18T16:48:03.381Z,16.88
2018-09-18T16:49:03.370Z,16.88
2018-09-18T16:50:03.365Z,11.25
2018-09-18T16:51:03.356Z,11.25
2018-09-18T16:52:03.337Z,11.25
2018-09-18T16:53:03.325Z,11.25
2018-09-18T16:54:03.320Z,11.25
2018-09-18T16:55:03.492Z,11.25
2018-09-18T16:56:03.306Z,11.25
2018-09-18T16:57:03.314Z,11.25
2018-09-18T16:58:03.276Z,11.25
2018-09-18T16:59:03.280Z,11.25
2018-09-18T17:00:03.255Z,11.25
2018-09-18T17:01:03.248Z,11.25
2018-09-18T17:02:03.268Z,5.62
2018-09-18T17:03:03.216Z,5.62
2018-09-18T17:04:03.205Z,5.62
2018-09-18T17:05:03.208Z,5.62
2018-09-18T17:06:03.193Z,5.62
2018-09-18T17:07:03.172Z,5.62
2018-09-18T17:08:03.167Z,5.62
2018-09-18T17:09:03.147Z,5.62
2018-09-18T17:10:03.134Z,5.62
2018-09-18T17:11:03.140Z,5.62
2018-09-18T17:12:03.113Z,5.62
2018-09-18T17:13:03.108Z,5.62
2018-09-18T17:14:03.093Z,5.62
2018-09-18T17:15:03.080Z,0.00
2018-09-18T17:16:03.107Z,0.00
2018-09-18T17:17:03.060Z,0.00
2018-09-18T17:18:03.047Z,0.00
2018-09-18T17:19:03.037Z,0.00
2018-09-18T17:20:03.023Z,0.00
2018-09-18T17:21:03.024Z,0.00
2018-09-18T17:22:03.004Z,0.00
2018-09-18T17:23:02.990Z,0.00